Terminal Aerodrome Forecast
Issued by NWS

Home | Current Version | Previous Version | Graphics & Text | Print | Product List | Glossary On
Versions: 1 2 3 4 5 6 7 8 9 10 11 12 13 14 15 16 17 18
000
FTUS43 KICT 281034 AAA
TAFRSL
TAF AMD
KRSL 281034Z 2811/0106 15010KT 5SM -SN BR OVC025
      TEMPO 2811/2815 2SM -SN BR OVC012
     FM281500 16012KT 6SM -SN OVC015
     FM282000 17013KT P6SM OVC025=

USA.gov is the U.S. government's official web portal to all federal, state and local government web resources and services.